PWSweather.com
Personal Weather Stations
Station Observations
VPOKROGLO
Kal Nad Kanalom, PrimorskaSI

Kal Nad KanalomPrimorskaSI

Lat: 46.072, Lon: 13.734

Elevation: 2526

Station Type: WS-2355

http://www.okroglovreme.com

High Low Average
Temperature 58.8°F14.9°F 56.8°F13.8°F 57.6°F14.2°F
Dew Point 57.5°F14.2°F 55.0°F12.8°F 56.2°F13.4°F
Winds 4.0 mph SW6.4 mph SW Calm Calm 0.8 mph 1.3 mph
Wind Gusts 8.1 mph13.0 mph -- 3.1 mph5.0 mph
Humidity 96% 93% 95%
Pressure 30.09 in1019.00 in 29.88 in1011.90 in -
Precipitation 0.16 in4.10 in - -
Hour Temp Dew Point Humidity Winds Wind Gusts Pressure Precip Precip Rate Daily Precip Total
12:00 AM 57.0°F13.9°C 55.0°F12.8°C 93% 1.3 mph W2.1 kmh W 3.6 mph5.8 kmh 30.09 in1019.0 mb 0.00 in0.0 mm 0.00 in/hr0.0 mm/hr 0.00 in0.0 mm
12:15 AM 57.0°F13.9°C 55.0°F12.8°C 93% 0.3 mph WSW0.5 kmh WSW 3.4 mph5.5 kmh 30.08 in1018.6 mb 0.00 in0.0 mm 0.00 in/hr0.0 mm/hr 0.00 in0.0 mm
12:30 AM 57.0°F13.9°C 55.0°F12.8°C 93% 1.2 mph WSW1.9 kmh WSW 5.4 mph8.7 kmh 30.08 in1018.6 mb 0.00 in0.0 mm 0.00 in/hr0.0 mm/hr 0.00 in0.0 mm
12:45 AM 57.0°F13.9°C 55.3°F12.9°C 94% 1.0 mph SW1.6 kmh SW 4.5 mph7.2 kmh 30.08 in1018.6 mb 0.00 in0.0 mm 0.00 in/hr0.0 mm/hr 0.00 in0.0 mm
01:00 AM 57.0°F13.9°C 55.3°F12.9°C 94% 1.0 mph W1.6 kmh W 4.0 mph6.4 kmh 30.07 in1018.3 mb 0.00 in0.0 mm 0.00 in/hr0.0 mm/hr 0.00 in0.0 mm
01:15 AM 57.0°F13.9°C 55.3°F12.9°C 94% 1.5 mph WSW2.4 kmh WSW 3.6 mph5.8 kmh 30.08 in1018.6 mb 0.00 in0.0 mm 0.00 in/hr0.0 mm/hr 0.00 in0.0 mm
01:30 AM 57.0°F13.9°C 55.3°F12.9°C 94% 1.5 mph WSW2.4 kmh WSW 4.5 mph7.2 kmh 30.08 in1018.6 mb 0.00 in0.0 mm 0.00 in/hr0.0 mm/hr 0.00 in0.0 mm
01:45 AM 57.4°F14.1°C 55.7°F13.2°C 94% 1.0 mph W1.6 kmh W 3.6 mph5.8 kmh 30.07 in1018.3 mb 0.00 in0.0 mm 0.00 in/hr0.0 mm/hr 0.00 in0.0 mm
02:00 AM 57.4°F14.1°C 55.7°F13.2°C 94% 0.3 mph W0.5 kmh W 3.1 mph5.0 kmh 30.07 in1018.3 mb 0.00 in0.0 mm 0.00 in/hr0.0 mm/hr 0.00 in0.0 mm
02:15 AM 57.4°F14.1°C 55.7°F13.2°C 94% 1.3 mph WSW2.1 kmh WSW 4.5 mph7.2 kmh 30.07 in1018.3 mb 0.00 in0.0 mm 0.00 in/hr0.0 mm/hr 0.00 in0.0 mm
02:30 AM 57.4°F14.1°C 55.7°F13.2°C 94% 1.1 mph SW1.8 kmh SW 3.4 mph5.5 kmh 30.06 in1017.9 mb 0.00 in0.0 mm 0.00 in/hr0.0 mm/hr 0.00 in0.0 mm
02:45 AM 57.2°F14.0°C 55.5°F13.1°C 94% 0.5 mph SW0.8 kmh SW 2.9 mph4.7 kmh 30.06 in1017.9 mb 0.00 in0.0 mm 0.00 in/hr0.0 mm/hr 0.00 in0.0 mm
03:00 AM 57.2°F14.0°C 55.5°F13.1°C 94% 1.2 mph SW1.9 kmh SW 4.0 mph6.4 kmh 30.06 in1017.9 mb 0.00 in0.0 mm 0.00 in/hr0.0 mm/hr 0.00 in0.0 mm
03:15 AM 57.0°F13.9°C 55.3°F12.9°C 94% 0.3 mph WSW0.5 kmh WSW 2.0 mph3.2 kmh 30.05 in1017.6 mb 0.00 in0.0 mm 0.00 in/hr0.0 mm/hr 0.00 in0.0 mm
03:30 AM 57.0°F13.9°C 55.3°F12.9°C 94% 1.4 mph SW2.3 kmh SW 3.8 mph6.1 kmh 30.04 in1017.3 mb 0.00 in0.0 mm 0.00 in/hr0.0 mm/hr 0.00 in0.0 mm
03:45 AM 57.2°F14.0°C 55.5°F13.1°C 94% 0.3 mph WSW0.5 kmh WSW 2.0 mph3.2 kmh 30.04 in1017.3 mb 0.00 in0.0 mm 0.00 in/hr0.0 mm/hr 0.00 in0.0 mm
04:00 AM 57.4°F14.1°C 55.7°F13.2°C 94% 0.4 mph WSW0.6 kmh WSW 4.0 mph6.4 kmh 30.04 in1017.3 mb 0.00 in0.0 mm 0.00 in/hr0.0 mm/hr 0.00 in0.0 mm
04:15 AM 57.4°F14.1°C 55.7°F13.2°C 94% 0.7 mph WSW1.1 kmh WSW 2.5 mph4.0 kmh 30.04 in1017.3 mb 0.00 in0.0 mm 0.00 in/hr0.0 mm/hr 0.00 in0.0 mm
04:30 AM 57.4°F14.1°C 55.7°F13.2°C 94% 0.8 mph WSW1.3 kmh WSW 2.9 mph4.7 kmh 30.04 in1017.3 mb 0.00 in0.0 mm 0.00 in/hr0.0 mm/hr 0.00 in0.0 mm
04:45 AM 57.4°F14.1°C 56.0°F13.3°C 95% 0.6 mph WSW1.0 kmh WSW 3.8 mph6.1 kmh 30.04 in1017.3 mb 0.00 in0.0 mm 0.00 in/hr0.0 mm/hr 0.00 in0.0 mm
05:00 AM 57.4°F14.1°C 56.0°F13.3°C 95% 0.4 mph W0.6 kmh W 2.2 mph3.5 kmh 30.04 in1017.3 mb 0.00 in0.0 mm 0.00 in/hr0.0 mm/hr 0.00 in0.0 mm
05:15 AM 57.6°F14.2°C 56.1°F13.4°C 95% 0.9 mph W1.4 kmh W 5.1 mph8.2 kmh 30.04 in1017.3 mb 0.00 in0.0 mm 0.00 in/hr0.0 mm/hr 0.00 in0.0 mm
05:30 AM 57.6°F14.2°C 56.1°F13.4°C 95% Calm Calm 1.1 mph1.8 kmh 30.04 in1017.3 mb 0.00 in0.0 mm 0.00 in/hr0.0 mm/hr 0.00 in0.0 mm
05:45 AM 57.6°F14.2°C 56.1°F13.4°C 95% Calm Calm 1.1 mph1.8 kmh 30.04 in1017.3 mb 0.00 in0.0 mm 0.00 in/hr0.0 mm/hr 0.00 in0.0 mm
06:00 AM 57.4°F14.1°C 56.0°F13.3°C 95% Calm Calm 0.7 mph1.1 kmh 30.04 in1017.3 mb 0.00 in0.0 mm 0.00 in/hr0.0 mm/hr 0.00 in0.0 mm
06:15 AM 57.4°F14.1°C 56.0°F13.3°C 95% Calm Calm 1.3 mph2.1 kmh 30.04 in1017.3 mb 0.00 in0.0 mm 0.00 in/hr0.0 mm/hr 0.00 in0.0 mm
06:30 AM 57.4°F14.1°C 56.0°F13.3°C 95% Calm Calm -- 30.04 in1017.3 mb 0.00 in0.0 mm 0.00 in/hr0.0 mm/hr 0.00 in0.0 mm
06:45 AM 57.6°F14.2°C 56.1°F13.4°C 95% Calm Calm -- 30.03 in1016.9 mb 0.00 in0.0 mm 0.00 in/hr0.0 mm/hr 0.00 in0.0 mm
07:00 AM 57.6°F14.2°C 56.1°F13.4°C 95% 0.1 mph SW0.2 kmh SW 2.2 mph3.5 kmh 30.04 in1017.3 mb 0.00 in0.0 mm 0.00 in/hr0.0 mm/hr 0.00 in0.0 mm
07:15 AM 57.7°F14.3°C 56.3°F13.5°C 95% 0.3 mph WSW0.5 kmh WSW 2.5 mph4.0 kmh 30.05 in1017.6 mb 0.00 in0.0 mm 0.00 in/hr0.0 mm/hr 0.00 in0.0 mm
07:30 AM 57.7°F14.3°C 56.3°F13.5°C 95% 0.1 mph NNW0.2 kmh NNW 1.6 mph2.6 kmh 30.04 in1017.3 mb 0.00 in0.0 mm 0.00 in/hr0.0 mm/hr 0.00 in0.0 mm
07:45 AM 57.7°F14.3°C 56.3°F13.5°C 95% Calm Calm -- 30.05 in1017.6 mb 0.00 in0.0 mm 0.00 in/hr0.0 mm/hr 0.00 in0.0 mm
08:00 AM 57.7°F14.3°C 56.3°F13.5°C 95% Calm Calm 1.1 mph1.8 kmh 30.05 in1017.6 mb 0.00 in0.0 mm 0.00 in/hr0.0 mm/hr 0.00 in0.0 mm
08:15 AM 57.7°F14.3°C 56.3°F13.5°C 95% 0.8 mph SW1.3 kmh SW 3.6 mph5.8 kmh 30.04 in1017.3 mb 0.02 in0.5 mm 0.08 in/hr2.0 mm/hr 0.02 in0.5 mm
08:30 AM 57.7°F14.3°C 56.3°F13.5°C 95% 0.1 mph SSW0.2 kmh SSW 1.6 mph2.6 kmh 30.04 in1017.3 mb 0.02 in0.5 mm 0.00 in/hr0.0 mm/hr 0.02 in0.5 mm
08:45 AM 57.6°F14.2°C 56.1°F13.4°C 95% 0.2 mph SSW0.3 kmh SSW 1.6 mph2.6 kmh 30.04 in1017.3 mb 0.02 in0.5 mm 0.00 in/hr0.0 mm/hr 0.02 in0.5 mm
09:00 AM 57.9°F14.4°C 56.5°F13.6°C 95% 1.7 mph SW2.7 kmh SW 4.7 mph7.6 kmh 30.04 in1017.3 mb 0.02 in0.5 mm 0.00 in/hr0.0 mm/hr 0.02 in0.5 mm
09:15 AM 58.1°F14.5°C 56.7°F13.7°C 95% 1.6 mph WSW2.6 kmh WSW 4.5 mph7.2 kmh 30.05 in1017.6 mb 0.00 in0.0 mm 0.00 in/hr0.0 mm/hr 0.02 in0.5 mm
09:30 AM 58.3°F14.6°C 56.9°F13.8°C 95% 2.5 mph WSW4.0 kmh WSW 5.1 mph8.2 kmh 30.05 in1017.6 mb 0.00 in0.0 mm 0.00 in/hr0.0 mm/hr 0.02 in0.5 mm
09:45 AM 57.9°F14.4°C 56.5°F13.6°C 95% 1.1 mph SW1.8 kmh SW 4.3 mph6.9 kmh 30.05 in1017.6 mb 0.00 in0.0 mm 0.00 in/hr0.0 mm/hr 0.02 in0.5 mm
10:00 AM 57.9°F14.4°C 56.5°F13.6°C 95% 0.6 mph SW1.0 kmh SW 3.4 mph5.5 kmh 30.05 in1017.6 mb 0.00 in0.0 mm 0.00 in/hr0.0 mm/hr 0.02 in0.5 mm
10:15 AM 57.9°F14.4°C 56.5°F13.6°C 95% 0.6 mph W1.0 kmh W 2.9 mph4.7 kmh 30.04 in1017.3 mb 0.00 in0.0 mm 0.00 in/hr0.0 mm/hr 0.02 in0.5 mm
10:30 AM 58.3°F14.6°C 56.9°F13.8°C 95% 0.6 mph WSW1.0 kmh WSW 2.7 mph4.3 kmh 30.04 in1017.3 mb 0.00 in0.0 mm 0.00 in/hr0.0 mm/hr 0.02 in0.5 mm
10:45 AM 58.3°F14.6°C 56.9°F13.8°C 95% 1.2 mph WSW1.9 kmh WSW 4.9 mph7.9 kmh 30.04 in1017.3 mb 0.00 in0.0 mm 0.00 in/hr0.0 mm/hr 0.02 in0.5 mm
11:00 AM 58.6°F14.8°C 57.2°F14.0°C 95% 0.9 mph NW1.4 kmh NW 4.7 mph7.6 kmh 30.04 in1017.3 mb 0.00 in0.0 mm 0.00 in/hr0.0 mm/hr 0.02 in0.5 mm
11:15 AM 58.8°F14.9°C 57.4°F14.1°C 95% 0.9 mph WSW1.4 kmh WSW 4.5 mph7.2 kmh 30.04 in1017.3 mb 0.00 in0.0 mm 0.00 in/hr0.0 mm/hr 0.02 in0.5 mm
11:30 AM 58.6°F14.8°C 57.2°F14.0°C 95% 1.0 mph W1.6 kmh W 3.8 mph6.1 kmh 30.03 in1016.9 mb 0.00 in0.0 mm 0.00 in/hr0.0 mm/hr 0.02 in0.5 mm
11:45 AM 58.6°F14.8°C 57.2°F14.0°C 95% 1.3 mph WSW2.1 kmh WSW 4.5 mph7.2 kmh 30.03 in1016.9 mb 0.00 in0.0 mm 0.00 in/hr0.0 mm/hr 0.02 in0.5 mm
12:00 PM 58.6°F14.8°C 57.2°F14.0°C 95% 2.0 mph SW3.2 kmh SW 6.0 mph9.7 kmh 30.02 in1016.6 mb 0.00 in0.0 mm 0.00 in/hr0.0 mm/hr 0.02 in0.5 mm
12:15 PM 58.8°F14.9°C 57.4°F14.1°C 95% 1.9 mph WSW3.1 kmh WSW 4.5 mph7.2 kmh 30.02 in1016.6 mb 0.00 in0.0 mm 0.00 in/hr0.0 mm/hr 0.02 in0.5 mm
12:30 PM 58.6°F14.8°C 57.2°F14.0°C 95% 0.6 mph W1.0 kmh W 3.6 mph5.8 kmh 30.01 in1016.3 mb 0.00 in0.0 mm 0.00 in/hr0.0 mm/hr 0.02 in0.5 mm
12:45 PM 58.6°F14.8°C 57.2°F14.0°C 95% 0.3 mph NW0.5 kmh NW 2.9 mph4.7 kmh 30.01 in1016.3 mb 0.00 in0.0 mm 0.00 in/hr0.0 mm/hr 0.02 in0.5 mm
01:00 PM 58.6°F14.8°C 57.2°F14.0°C 95% 1.1 mph W1.8 kmh W 4.5 mph7.2 kmh 30.01 in1016.3 mb 0.00 in0.0 mm 0.00 in/hr0.0 mm/hr 0.02 in0.5 mm
01:15 PM 58.5°F14.7°C 57.0°F13.9°C 95% 3.3 mph SW5.3 kmh SW 8.1 mph13.0 kmh 30.00 in1015.9 mb 0.02 in0.5 mm 0.08 in/hr2.0 mm/hr 0.04 in1.0 mm
01:30 PM 58.1°F14.5°C 56.7°F13.7°C 95% 4.0 mph SW6.4 kmh SW 8.1 mph13.0 kmh 29.99 in1015.6 mb 0.02 in0.5 mm 0.00 in/hr0.0 mm/hr 0.04 in1.0 mm
01:45 PM 58.1°F14.5°C 56.7°F13.7°C 95% 2.6 mph WSW4.2 kmh WSW 4.9 mph7.9 kmh 29.99 in1015.6 mb 0.02 in0.5 mm 0.00 in/hr0.0 mm/hr 0.04 in1.0 mm
02:00 PM 58.1°F14.5°C 56.7°F13.7°C 95% 2.1 mph WSW3.4 kmh WSW 6.0 mph9.7 kmh 29.98 in1015.2 mb 0.02 in0.5 mm 0.00 in/hr0.0 mm/hr 0.04 in1.0 mm
02:15 PM 58.3°F14.6°C 57.1°F13.9°C 96% 1.4 mph SW2.3 kmh SW 4.3 mph6.9 kmh 29.98 in1015.2 mb 0.00 in0.0 mm 0.00 in/hr0.0 mm/hr 0.04 in1.0 mm
02:30 PM 58.5°F14.7°C 57.3°F14.1°C 96% 1.7 mph SW2.7 kmh SW 5.1 mph8.2 kmh 29.97 in1014.9 mb 0.00 in0.0 mm 0.00 in/hr0.0 mm/hr 0.04 in1.0 mm
02:45 PM 58.6°F14.8°C 57.5°F14.2°C 96% 1.8 mph WSW2.9 kmh WSW 6.9 mph11.1 kmh 29.97 in1014.9 mb 0.00 in0.0 mm 0.00 in/hr0.0 mm/hr 0.04 in1.0 mm
03:00 PM 58.6°F14.8°C 57.2°F14.0°C 95% 1.7 mph SW2.7 kmh SW 4.5 mph7.2 kmh 29.97 in1014.9 mb 0.00 in0.0 mm 0.00 in/hr0.0 mm/hr 0.04 in1.0 mm
03:15 PM 58.6°F14.8°C 57.2°F14.0°C 95% 1.2 mph WSW1.9 kmh WSW 3.4 mph5.5 kmh 29.97 in1014.9 mb 0.00 in0.0 mm 0.00 in/hr0.0 mm/hr 0.04 in1.0 mm
03:30 PM 58.3°F14.6°C 57.1°F13.9°C 96% 1.4 mph SW2.3 kmh SW 4.5 mph7.2 kmh 29.96 in1014.6 mb 0.00 in0.0 mm 0.00 in/hr0.0 mm/hr 0.04 in1.0 mm
03:45 PM 58.1°F14.5°C 57.0°F13.9°C 96% 1.0 mph WSW1.6 kmh WSW 3.1 mph5.0 kmh 29.96 in1014.6 mb 0.00 in0.0 mm 0.00 in/hr0.0 mm/hr 0.04 in1.0 mm
04:00 PM 58.1°F14.5°C 57.0°F13.9°C 96% 0.5 mph SW0.8 kmh SW 2.5 mph4.0 kmh 29.96 in1014.6 mb 0.00 in0.0 mm 0.00 in/hr0.0 mm/hr 0.04 in1.0 mm
04:15 PM 57.9°F14.4°C 56.8°F13.8°C 96% 0.5 mph WSW0.8 kmh WSW 2.9 mph4.7 kmh 29.96 in1014.6 mb 0.00 in0.0 mm 0.00 in/hr0.0 mm/hr 0.04 in1.0 mm
04:30 PM 57.7°F14.3°C 56.6°F13.7°C 96% 0.3 mph W0.5 kmh W 2.5 mph4.0 kmh 29.96 in1014.6 mb 0.00 in0.0 mm 0.00 in/hr0.0 mm/hr 0.04 in1.0 mm
04:45 PM 57.6°F14.2°C 56.1°F13.4°C 95% 0.6 mph SW1.0 kmh SW 3.8 mph6.1 kmh 29.95 in1014.2 mb 0.00 in0.0 mm 0.00 in/hr0.0 mm/hr 0.04 in1.0 mm
05:00 PM 57.6°F14.2°C 56.1°F13.4°C 95% 0.1 mph W0.2 kmh W 2.0 mph3.2 kmh 29.95 in1014.2 mb 0.00 in0.0 mm 0.00 in/hr0.0 mm/hr 0.04 in1.0 mm
05:15 PM 57.4°F14.1°C 56.0°F13.3°C 95% 0.4 mph SW0.6 kmh SW 3.8 mph6.1 kmh 29.96 in1014.6 mb 0.00 in0.0 mm 0.00 in/hr0.0 mm/hr 0.04 in1.0 mm
05:30 PM 57.4°F14.1°C 56.0°F13.3°C 95% 1.0 mph SW1.6 kmh SW 3.4 mph5.5 kmh 29.96 in1014.6 mb 0.00 in0.0 mm 0.00 in/hr0.0 mm/hr 0.04 in1.0 mm
05:45 PM 57.0°F13.9°C 55.6°F13.1°C 95% 0.3 mph SSW0.5 kmh SSW 2.0 mph3.2 kmh 29.95 in1014.2 mb 0.00 in0.0 mm 0.00 in/hr0.0 mm/hr 0.04 in1.0 mm
06:00 PM 56.8°F13.8°C 55.4°F13.0°C 95% 0.2 mph S0.3 kmh S 1.8 mph2.9 kmh 29.95 in1014.2 mb 0.00 in0.0 mm 0.00 in/hr0.0 mm/hr 0.04 in1.0 mm
06:15 PM 56.8°F13.8°C 55.4°F13.0°C 95% 0.1 mph SSW0.2 kmh SSW 2.2 mph3.5 kmh 29.95 in1014.2 mb 0.00 in0.0 mm 0.00 in/hr0.0 mm/hr 0.04 in1.0 mm
06:30 PM 56.8°F13.8°C 55.4°F13.0°C 95% Calm Calm -- 29.95 in1014.2 mb 0.00 in0.0 mm 0.00 in/hr0.0 mm/hr 0.04 in1.0 mm
06:45 PM 56.8°F13.8°C 55.7°F13.2°C 96% Calm Calm 0.9 mph1.4 kmh 29.94 in1013.9 mb 0.00 in0.0 mm 0.00 in/hr0.0 mm/hr 0.04 in1.0 mm
07:00 PM 56.8°F13.8°C 55.4°F13.0°C 95% 0.4 mph SW0.6 kmh SW 2.9 mph4.7 kmh 29.94 in1013.9 mb 0.00 in0.0 mm 0.00 in/hr0.0 mm/hr 0.04 in1.0 mm
07:15 PM 57.0°F13.9°C 55.6°F13.1°C 95% 0.8 mph WSW1.3 kmh WSW 2.9 mph4.7 kmh 29.94 in1013.9 mb 0.00 in0.0 mm 0.00 in/hr0.0 mm/hr 0.04 in1.0 mm
07:30 PM 57.0°F13.9°C 55.6°F13.1°C 95% 0.1 mph W0.2 kmh W 2.2 mph3.5 kmh 29.94 in1013.9 mb 0.00 in0.0 mm 0.00 in/hr0.0 mm/hr 0.04 in1.0 mm
07:45 PM 57.0°F13.9°C 55.6°F13.1°C 95% Calm Calm 0.9 mph1.4 kmh 29.94 in1013.9 mb 0.00 in0.0 mm 0.00 in/hr0.0 mm/hr 0.04 in1.0 mm
08:00 PM 57.0°F13.9°C 55.9°F13.3°C 96% Calm Calm -- 29.93 in1013.5 mb 0.00 in0.0 mm 0.00 in/hr0.0 mm/hr 0.04 in1.0 mm
08:15 PM 57.0°F13.9°C 55.6°F13.1°C 95% Calm Calm 1.6 mph2.6 kmh 29.94 in1013.9 mb 0.00 in0.0 mm 0.00 in/hr0.0 mm/hr 0.04 in1.0 mm
08:30 PM 57.0°F13.9°C 55.9°F13.3°C 96% Calm Calm -- 29.93 in1013.5 mb 0.00 in0.0 mm 0.00 in/hr0.0 mm/hr 0.04 in1.0 mm
08:45 PM 57.2°F14.0°C 56.1°F13.4°C 96% 0.3 mph SW0.5 kmh SW 1.6 mph2.6 kmh 29.93 in1013.5 mb 0.00 in0.0 mm 0.00 in/hr0.0 mm/hr 0.04 in1.0 mm
09:00 PM 57.4°F14.1°C 56.2°F13.4°C 96% 0.9 mph SW1.4 kmh SW 3.6 mph5.8 kmh 29.93 in1013.5 mb 0.00 in0.0 mm 0.00 in/hr0.0 mm/hr 0.04 in1.0 mm
09:15 PM 57.4°F14.1°C 56.2°F13.4°C 96% 0.1 mph SW0.2 kmh SW 1.8 mph2.9 kmh 29.93 in1013.5 mb 0.00 in0.0 mm 0.00 in/hr0.0 mm/hr 0.04 in1.0 mm
09:30 PM 57.0°F13.9°C 55.9°F13.3°C 96% 0.4 mph WSW0.6 kmh WSW 3.1 mph5.0 kmh 29.92 in1013.2 mb 0.00 in0.0 mm 0.00 in/hr0.0 mm/hr 0.04 in1.0 mm
09:45 PM 57.0°F13.9°C 55.9°F13.3°C 96% 0.3 mph SW0.5 kmh SW 3.4 mph5.5 kmh 29.92 in1013.2 mb 0.00 in0.0 mm 0.00 in/hr0.0 mm/hr 0.04 in1.0 mm
10:00 PM 57.0°F13.9°C 55.9°F13.3°C 96% 0.2 mph W0.3 kmh W 1.8 mph2.9 kmh 29.91 in1012.9 mb 0.00 in0.0 mm 0.00 in/hr0.0 mm/hr 0.04 in1.0 mm
10:15 PM 56.8°F13.8°C 55.7°F13.2°C 96% Calm Calm -- 29.90 in1012.5 mb 0.00 in0.0 mm 0.00 in/hr0.0 mm/hr 0.04 in1.0 mm
10:30 PM 56.8°F13.8°C 55.7°F13.2°C 96% Calm Calm -- 29.89 in1012.2 mb 0.00 in0.0 mm 0.00 in/hr0.0 mm/hr 0.04 in1.0 mm
10:45 PM 57.0°F13.9°C 55.9°F13.3°C 96% 0.3 mph SW0.5 kmh SW 3.4 mph5.5 kmh 29.89 in1012.2 mb 0.00 in0.0 mm 0.00 in/hr0.0 mm/hr 0.04 in1.0 mm
11:00 PM 57.0°F13.9°C 55.9°F13.3°C 96% 0.4 mph WNW0.6 kmh WNW 3.1 mph5.0 kmh 29.89 in1012.2 mb 0.00 in0.0 mm 0.00 in/hr0.0 mm/hr 0.04 in1.0 mm
11:15 PM 57.0°F13.9°C 55.9°F13.3°C 96% 0.6 mph WNW1.0 kmh WNW 4.5 mph7.2 kmh 29.89 in1012.2 mb 0.00 in0.0 mm 0.00 in/hr0.0 mm/hr 0.04 in1.0 mm
11:30 PM 57.0°F13.9°C 55.9°F13.3°C 96% 1.3 mph WSW2.1 kmh WSW 3.4 mph5.5 kmh 29.88 in1011.9 mb 0.00 in0.0 mm 0.00 in/hr0.0 mm/hr 0.04 in1.0 mm
11:45 PM 57.0°F13.9°C 55.9°F13.3°C 96% 2.4 mph SW3.9 kmh SW 5.4 mph8.7 kmh 29.88 in1011.9 mb 0.00 in0.0 mm 0.00 in/hr0.0 mm/hr 0.04 in1.0 mm